sensor_id;sensor_type;location;lat;lon;timestamp;temperature;humidity
2907;DHT22;1463;51.070;16.998;2023-10-08T00:01:06;15.30;99.90
2907;DHT22;1463;51.070;16.998;2023-10-08T00:03:32;15.40;99.90
2907;DHT22;1463;51.070;16.998;2023-10-08T00:06:02;15.30;99.90
2907;DHT22;1463;51.070;16.998;2023-10-08T00:08:32;15.20;99.90
2907;DHT22;1463;51.070;16.998;2023-10-08T00:11:01;15.10;99.90
2907;DHT22;1463;51.070;16.998;2023-10-08T00:13:32;15.20;99.90
2907;DHT22;1463;51.070;16.998;2023-10-08T00:16:06;15.00;99.90
2907;DHT22;1463;51.070;16.998;2023-10-08T00:18:38;15.10;99.90
2907;DHT22;1463;51.070;16.998;2023-10-08T00:21:07;15.10;99.90
2907;DHT22;1463;51.070;16.998;2023-10-08T00:23:42;15.10;99.90
2907;DHT22;1463;51.070;16.998;2023-10-08T00:26:17;15.10;99.90
2907;DHT22;1463;51.070;16.998;2023-10-08T00:28:54;15.10;99.90
2907;DHT22;1463;51.070;16.998;2023-10-08T00:31:22;15.00;99.90
2907;DHT22;1463;51.070;16.998;2023-10-08T00:33:52;15.00;99.90
2907;DHT22;1463;51.070;16.998;2023-10-08T00:36:19;15.00;99.90
2907;DHT22;1463;51.070;16.998;2023-10-08T00:38:47;15.00;99.90
2907;DHT22;1463;51.070;16.998;2023-10-08T00:41:16;15.00;99.90
2907;DHT22;1463;51.070;16.998;2023-10-08T00:43:47;15.00;99.90
2907;DHT22;1463;51.070;16.998;2023-10-08T00:46:16;15.00;99.90
2907;DHT22;1463;51.070;16.998;2023-10-08T00:48:50;15.00;99.90
2907;DHT22;1463;51.070;16.998;2023-10-08T00:51:19;14.90;99.90
2907;DHT22;1463;51.070;16.998;2023-10-08T00:53:55;15.00;99.90
2907;DHT22;1463;51.070;16.998;2023-10-08T00:56:26;15.00;99.90
2907;DHT22;1463;51.070;16.998;2023-10-08T00:59:10;14.90;99.90
2907;DHT22;1463;51.070;16.998;2023-10-08T01:01:39;14.90;99.90
2907;DHT22;1463;51.070;16.998;2023-10-08T01:04:15;14.90;99.90
2907;DHT22;1463;51.070;16.998;2023-10-08T01:06:42;14.90;99.90
2907;DHT22;1463;51.070;16.998;2023-10-08T01:09:09;14.90;99.90
2907;DHT22;1463;51.070;16.998;2023-10-08T01:11:43;14.90;99.90
2907;DHT22;1463;51.070;16.998;2023-10-08T01:14:15;14.80;99.90
2907;DHT22;1463;51.070;16.998;2023-10-08T01:16:46;14.90;99.90
2907;DHT22;1463;51.070;16.998;2023-10-08T01:19:20;14.80;99.90
2907;DHT22;1463;51.070;16.998;2023-10-08T01:21:47;14.90;99.90
2907;DHT22;1463;51.070;16.998;2023-10-08T01:24:15;14.90;99.90
2907;DHT22;1463;51.070;16.998;2023-10-08T01:26:43;14.80;99.90
2907;DHT22;1463;51.070;16.998;2023-10-08T01:29:11;14.70;99.90
2907;DHT22;1463;51.070;16.998;2023-10-08T01:31:45;14.80;99.90
2907;DHT22;1463;51.070;16.998;2023-10-08T01:34:11;14.80;99.90
2907;DHT22;1463;51.070;16.998;2023-10-08T01:36:44;14.80;99.90
2907;DHT22;1463;51.070;16.998;2023-10-08T01:39:12;14.70;99.90
2907;DHT22;1463;51.070;16.998;2023-10-08T01:41:45;14.60;99.90
2907;DHT22;1463;51.070;16.998;2023-10-08T01:44:16;14.70;99.90
2907;DHT22;1463;51.070;16.998;2023-10-08T01:46:43;14.70;99.90
2907;DHT22;1463;51.070;16.998;2023-10-08T01:49:11;14.70;99.90
2907;DHT22;1463;51.070;16.998;2023-10-08T01:51:47;14.60;99.90
2907;DHT22;1463;51.070;16.998;2023-10-08T01:54:14;14.60;99.90
2907;DHT22;1463;51.070;16.998;2023-10-08T01:56:44;14.70;99.90
2907;DHT22;1463;51.070;16.998;2023-10-08T01:59:13;14.70;99.90
2907;DHT22;1463;51.070;16.998;2023-10-08T02:01:41;14.60;99.90
2907;DHT22;1463;51.070;16.998;2023-10-08T02:04:08;14.50;99.90
2907;DHT22;1463;51.070;16.998;2023-10-08T02:06:38;14.60;99.90
2907;DHT22;1463;51.070;16.998;2023-10-08T02:09:06;14.30;99.90
2907;DHT22;1463;51.070;16.998;2023-10-08T02:11:48;14.40;99.90
2907;DHT22;1463;51.070;16.998;2023-10-08T02:14:16;14.40;99.90
2907;DHT22;1463;51.070;16.998;2023-10-08T02:16:43;14.40;99.90
2907;DHT22;1463;51.070;16.998;2023-10-08T02:19:10;14.40;99.90
2907;DHT22;1463;51.070;16.998;2023-10-08T02:21:37;14.50;99.90
2907;DHT22;1463;51.070;16.998;2023-10-08T02:24:07;14.40;99.90
2907;DHT22;1463;51.070;16.998;2023-10-08T02:26:36;14.40;99.90
2907;DHT22;1463;51.070;16.998;2023-10-08T02:29:05;14.40;99.90
2907;DHT22;1463;51.070;16.998;2023-10-08T02:31:36;14.30;99.90
2907;DHT22;1463;51.070;16.998;2023-10-08T02:34:04;14.40;99.90
2907;DHT22;1463;51.070;16.998;2023-10-08T02:36:33;14.30;99.90
2907;DHT22;1463;51.070;16.998;2023-10-08T02:39:01;14.20;99.90
2907;DHT22;1463;51.070;16.998;2023-10-08T02:41:31;14.10;99.90
2907;DHT22;1463;51.070;16.998;2023-10-08T02:43:58;14.10;99.90
2907;DHT22;1463;51.070;16.998;2023-10-08T02:46:27;14.00;99.90
2907;DHT22;1463;51.070;16.998;2023-10-08T02:48:56;14.10;99.90
2907;DHT22;1463;51.070;16.998;2023-10-08T02:51:23;14.10;99.90
2907;DHT22;1463;51.070;16.998;2023-10-08T02:53:50;14.10;99.90
2907;DHT22;1463;51.070;16.998;2023-10-08T02:56:17;14.00;99.90
2907;DHT22;1463;51.070;16.998;2023-10-08T02:58:44;14.10;99.90
2907;DHT22;1463;51.070;16.998;2023-10-08T03:01:13;14.20;99.90
2907;DHT22;1463;51.070;16.998;2023-10-08T03:03:42;14.10;99.90
2907;DHT22;1463;51.070;16.998;2023-10-08T03:06:08;14.10;99.90
2907;DHT22;1463;51.070;16.998;2023-10-08T03:08:37;14.20;99.90
2907;DHT22;1463;51.070;16.998;2023-10-08T03:11:08;14.10;99.90
2907;DHT22;1463;51.070;16.998;2023-10-08T03:13:43;13.80;99.90
2907;DHT22;1463;51.070;16.998;2023-10-08T03:16:12;13.70;99.90
2907;DHT22;1463;51.070;16.998;2023-10-08T03:18:39;13.60;99.90
2907;DHT22;1463;51.070;16.998;2023-10-08T03:21:09;13.60;99.90
2907;DHT22;1463;51.070;16.998;2023-10-08T03:23:46;13.80;99.90
2907;DHT22;1463;51.070;16.998;2023-10-08T03:26:16;13.70;99.90
2907;DHT22;1463;51.070;16.998;2023-10-08T03:29:01;13.60;99.90
2907;DHT22;1463;51.070;16.998;2023-10-08T03:31:32;13.60;99.90
2907;DHT22;1463;51.070;16.998;2023-10-08T03:34:16;13.70;99.90
2907;DHT22;1463;51.070;16.998;2023-10-08T03:36:46;13.50;99.90
2907;DHT22;1463;51.070;16.998;2023-10-08T03:39:15;13.50;99.90
2907;DHT22;1463;51.070;16.998;2023-10-08T03:41:45;13.50;99.90
2907;DHT22;1463;51.070;16.998;2023-10-08T03:44:25;13.30;99.90
2907;DHT22;1463;51.070;16.998;2023-10-08T03:46:55;13.20;99.90
2907;DHT22;1463;51.070;16.998;2023-10-08T03:49:22;13.00;99.90
2907;DHT22;1463;51.070;16.998;2023-10-08T03:51:53;13.00;99.90
2907;DHT22;1463;51.070;16.998;2023-10-08T03:54:23;13.10;99.90
2907;DHT22;1463;51.070;16.998;2023-10-08T03:56:59;13.00;99.90
2907;DHT22;1463;51.070;16.998;2023-10-08T03:59:26;13.20;99.90
2907;DHT22;1463;51.070;16.998;2023-10-08T04:01:57;13.00;99.90
2907;DHT22;1463;51.070;16.998;2023-10-08T04:04:34;13.20;99.90
2907;DHT22;1463;51.070;16.998;2023-10-08T04:07:16;13.10;99.90
2907;DHT22;1463;51.070;16.998;2023-10-08T04:09:55;13.00;99.90
2907;DHT22;1463;51.070;16.998;2023-10-08T04:12:42;13.10;99.90
2907;DHT22;1463;51.070;16.998;2023-10-08T04:15:13;13.00;99.90
2907;DHT22;1463;51.070;16.998;2023-10-08T04:17:42;13.10;99.90
2907;DHT22;1463;51.070;16.998;2023-10-08T04:20:11;13.10;99.90
2907;DHT22;1463;51.070;16.998;2023-10-08T04:22:58;13.00;99.90
2907;DHT22;1463;51.070;16.998;2023-10-08T04:25:25;12.90;99.90
2907;DHT22;1463;51.070;16.998;2023-10-08T04:27:53;12.90;99.90
2907;DHT22;1463;51.070;16.998;2023-10-08T04:30:24;12.80;99.90
2907;DHT22;1463;51.070;16.998;2023-10-08T04:32:58;13.10;99.90
2907;DHT22;1463;51.070;16.998;2023-10-08T04:35:32;13.10;99.90
2907;DHT22;1463;51.070;16.998;2023-10-08T04:38:03;13.20;99.90
2907;DHT22;1463;51.070;16.998;2023-10-08T04:40:30;13.20;99.90
2907;DHT22;1463;51.070;16.998;2023-10-08T04:43:04;13.00;99.90
2907;DHT22;1463;51.070;16.998;2023-10-08T04:45:31;13.10;99.90
2907;DHT22;1463;51.070;16.998;2023-10-08T04:47:59;13.10;99.90
2907;DHT22;1463;51.070;16.998;2023-10-08T04:50:26;13.10;99.90
2907;DHT22;1463;51.070;16.998;2023-10-08T04:52:56;13.00;99.90
2907;DHT22;1463;51.070;16.998;2023-10-08T04:55:26;12.90;99.90
2907;DHT22;1463;51.070;16.998;2023-10-08T04:57:55;12.90;99.90
2907;DHT22;1463;51.070;16.998;2023-10-08T05:00:22;12.80;99.90
2907;DHT22;1463;51.070;16.998;2023-10-08T05:03:06;12.90;99.90
2907;DHT22;1463;51.070;16.998;2023-10-08T05:05:39;12.90;99.90
2907;DHT22;1463;51.070;16.998;2023-10-08T05:08:20;12.90;99.90
2907;DHT22;1463;51.070;16.998;2023-10-08T05:10:55;12.70;99.90
2907;DHT22;1463;51.070;16.998;2023-10-08T05:13:41;12.90;99.90
2907;DHT22;1463;51.070;16.998;2023-10-08T05:16:22;12.70;99.90
2907;DHT22;1463;51.070;16.998;2023-10-08T05:19:02;12.60;99.90
2907;DHT22;1463;51.070;16.998;2023-10-08T05:21:50;12.70;99.90
2907;DHT22;1463;51.070;16.998;2023-10-08T05:24:28;12.70;99.90
2907;DHT22;1463;51.070;16.998;2023-10-08T05:27:05;12.80;99.90
2907;DHT22;1463;51.070;16.998;2023-10-08T05:29:50;12.60;99.90
2907;DHT22;1463;51.070;16.998;2023-10-08T05:32:39;12.50;99.90
2907;DHT22;1463;51.070;16.998;2023-10-08T05:35:31;12.60;99.90
2907;DHT22;1463;51.070;16.998;2023-10-08T05:38:15;12.80;99.90
2907;DHT22;1463;51.070;16.998;2023-10-08T05:40:43;12.80;99.90
2907;DHT22;1463;51.070;16.998;2023-10-08T05:43:29;12.90;99.90
2907;DHT22;1463;51.070;16.998;2023-10-08T05:46:15;13.00;99.90
2907;DHT22;1463;51.070;16.998;2023-10-08T05:48:59;13.10;99.90
2907;DHT22;1463;51.070;16.998;2023-10-08T05:51:29;13.20;99.90
2907;DHT22;1463;51.070;16.998;2023-10-08T05:54:11;13.20;99.90
2907;DHT22;1463;51.070;16.998;2023-10-08T05:56:51;13.20;99.90
2907;DHT22;1463;51.070;16.998;2023-10-08T05:59:34;13.20;99.90
2907;DHT22;1463;51.070;16.998;2023-10-08T06:02:18;13.20;99.90
2907;DHT22;1463;51.070;16.998;2023-10-08T06:04:53;12.90;99.90
2907;DHT22;1463;51.070;16.998;2023-10-08T06:07:37;13.10;99.90
2907;DHT22;1463;51.070;16.998;2023-10-08T06:10:13;13.10;99.90
2907;DHT22;1463;51.070;16.998;2023-10-08T06:13:01;13.10;99.90
2907;DHT22;1463;51.070;16.998;2023-10-08T06:15:35;13.00;99.90
2907;DHT22;1463;51.070;16.998;2023-10-08T06:18:10;13.10;99.90
2907;DHT22;1463;51.070;16.998;2023-10-08T06:20:40;13.10;99.90
2907;DHT22;1463;51.070;16.998;2023-10-08T06:23:09;13.00;99.90
2907;DHT22;1463;51.070;16.998;2023-10-08T06:25:37;13.00;99.90
2907;DHT22;1463;51.070;16.998;2023-10-08T06:28:13;13.00;99.90
2907;DHT22;1463;51.070;16.998;2023-10-08T06:30:46;13.00;99.90
2907;DHT22;1463;51.070;16.998;2023-10-08T06:33:16;13.00;99.90
2907;DHT22;1463;51.070;16.998;2023-10-08T06:35:43;13.00;99.90
2907;DHT22;1463;51.070;16.998;2023-10-08T06:38:27;13.20;99.90
2907;DHT22;1463;51.070;16.998;2023-10-08T06:40:56;13.20;99.90
2907;DHT22;1463;51.070;16.998;2023-10-08T06:43:25;13.10;99.90
2907;DHT22;1463;51.070;16.998;2023-10-08T06:45:54;13.10;99.90
2907;DHT22;1463;51.070;16.998;2023-10-08T06:48:23;13.10;99.90
2907;DHT22;1463;51.070;16.998;2023-10-08T06:50:55;13.10;99.90
2907;DHT22;1463;51.070;16.998;2023-10-08T06:53:33;13.20;99.90
2907;DHT22;1463;51.070;16.998;2023-10-08T06:56:04;13.30;99.90
2907;DHT22;1463;51.070;16.998;2023-10-08T06:58:31;13.30;99.90
2907;DHT22;1463;51.070;16.998;2023-10-08T07:01:03;13.40;99.90
2907;DHT22;1463;51.070;16.998;2023-10-08T07:03:35;13.40;99.90
2907;DHT22;1463;51.070;16.998;2023-10-08T07:06:03;13.60;99.90
2907;DHT22;1463;51.070;16.998;2023-10-08T07:08:45;13.60;99.90
2907;DHT22;1463;51.070;16.998;2023-10-08T07:11:21;13.40;99.90
2907;DHT22;1463;51.070;16.998;2023-10-08T07:13:48;13.60;99.90
2907;DHT22;1463;51.070;16.998;2023-10-08T07:16:17;13.70;99.90
2907;DHT22;1463;51.070;16.998;2023-10-08T07:18:46;13.80;99.90
2907;DHT22;1463;51.070;16.998;2023-10-08T07:21:18;13.80;99.90
2907;DHT22;1463;51.070;16.998;2023-10-08T07:23:49;13.70;99.90
2907;DHT22;1463;51.070;16.998;2023-10-08T07:26:22;13.60;99.90
2907;DHT22;1463;51.070;16.998;2023-10-08T07:28:51;13.80;99.90
2907;DHT22;1463;51.070;16.998;2023-10-08T07:31:21;13.70;99.90
2907;DHT22;1463;51.070;16.998;2023-10-08T07:33:49;13.70;99.90
2907;DHT22;1463;51.070;16.998;2023-10-08T07:36:22;13.60;99.90
2907;DHT22;1463;51.070;16.998;2023-10-08T07:38:50;13.60;99.90
2907;DHT22;1463;51.070;16.998;2023-10-08T07:41:17;13.60;99.90
2907;DHT22;1463;51.070;16.998;2023-10-08T07:43:46;13.60;99.90
2907;DHT22;1463;51.070;16.998;2023-10-08T07:46:20;13.70;99.90
2907;DHT22;1463;51.070;16.998;2023-10-08T07:48:46;13.80;99.90
2907;DHT22;1463;51.070;16.998;2023-10-08T07:51:17;14.00;99.90
2907;DHT22;1463;51.070;16.998;2023-10-08T07:53:47;14.00;99.90
2907;DHT22;1463;51.070;16.998;2023-10-08T07:56:14;13.90;99.90
2907;DHT22;1463;51.070;16.998;2023-10-08T07:58:43;13.80;99.90
2907;DHT22;1463;51.070;16.998;2023-10-08T08:01:10;13.70;99.90
2907;DHT22;1463;51.070;16.998;2023-10-08T08:03:40;13.70;99.90
2907;DHT22;1463;51.070;16.998;2023-10-08T08:06:08;14.70;99.90
2907;DHT22;1463;51.070;16.998;2023-10-08T08:08:39;14.40;99.90
2907;DHT22;1463;51.070;16.998;2023-10-08T08:11:06;14.00;99.90
2907;DHT22;1463;51.070;16.998;2023-10-08T08:13:38;13.90;99.90
2907;DHT22;1463;51.070;16.998;2023-10-08T08:16:05;13.90;99.90
2907;DHT22;1463;51.070;16.998;2023-10-08T08:18:48;13.80;99.90
2907;DHT22;1463;51.070;16.998;2023-10-08T08:21:15;13.60;99.90
2907;DHT22;1463;51.070;16.998;2023-10-08T08:23:46;13.40;99.90
2907;DHT22;1463;51.070;16.998;2023-10-08T08:26:18;13.50;99.90
2907;DHT22;1463;51.070;16.998;2023-10-08T08:28:54;13.60;99.90
2907;DHT22;1463;51.070;16.998;2023-10-08T08:31:22;13.60;99.90
2907;DHT22;1463;51.070;16.998;2023-10-08T08:33:52;13.50;99.90
2907;DHT22;1463;51.070;16.998;2023-10-08T08:36:22;13.50;99.90
2907;DHT22;1463;51.070;16.998;2023-10-08T08:38:49;13.50;99.90
2907;DHT22;1463;51.070;16.998;2023-10-08T08:41:16;13.50;99.90
2907;DHT22;1463;51.070;16.998;2023-10-08T08:43:47;13.50;99.90
2907;DHT22;1463;51.070;16.998;2023-10-08T08:46:14;13.50;99.90
2907;DHT22;1463;51.070;16.998;2023-10-08T08:48:46;13.50;99.90
2907;DHT22;1463;51.070;16.998;2023-10-08T08:51:14;13.40;99.90
2907;DHT22;1463;51.070;16.998;2023-10-08T08:53:42;13.40;99.90
2907;DHT22;1463;51.070;16.998;2023-10-08T08:56:09;13.50;99.90
2907;DHT22;1463;51.070;16.998;2023-10-08T08:58:37;13.60;99.90
2907;DHT22;1463;51.070;16.998;2023-10-08T09:01:07;13.50;99.90
2907;DHT22;1463;51.070;16.998;2023-10-08T09:03:38;13.50;99.90
2907;DHT22;1463;51.070;16.998;2023-10-08T09:06:05;13.40;99.90
2907;DHT22;1463;51.070;16.998;2023-10-08T09:08:36;13.50;99.90
2907;DHT22;1463;51.070;16.998;2023-10-08T09:11:07;13.60;99.90
2907;DHT22;1463;51.070;16.998;2023-10-08T09:13:35;13.20;97.00
2907;DHT22;1463;51.070;16.998;2023-10-08T09:16:11;13.30;97.50
2907;DHT22;1463;51.070;16.998;2023-10-08T09:18:38;13.30;98.70
2907;DHT22;1463;51.070;16.998;2023-10-08T09:21:09;13.40;99.40
2907;DHT22;1463;51.070;16.998;2023-10-08T09:23:41;13.50;95.80
2907;DHT22;1463;51.070;16.998;2023-10-08T09:26:13;13.50;96.60
2907;DHT22;1463;51.070;16.998;2023-10-08T09:28:44;13.50;93.80
2907;DHT22;1463;51.070;16.998;2023-10-08T09:31:13;13.50;93.60
2907;DHT22;1463;51.070;16.998;2023-10-08T09:33:40;13.50;94.90
2907;DHT22;1463;51.070;16.998;2023-10-08T09:36:08;13.40;96.70
2907;DHT22;1463;51.070;16.998;2023-10-08T09:38:36;13.50;97.50
2907;DHT22;1463;51.070;16.998;2023-10-08T09:41:05;13.40;96.00
2907;DHT22;1463;51.070;16.998;2023-10-08T09:43:34;13.50;95.60
2907;DHT22;1463;51.070;16.998;2023-10-08T09:46:08;13.50;96.30
2907;DHT22;1463;51.070;16.998;2023-10-08T09:48:37;13.40;94.90
2907;DHT22;1463;51.070;16.998;2023-10-08T09:51:10;13.40;94.90
2907;DHT22;1463;51.070;16.998;2023-10-08T09:53:43;13.40;94.20
2907;DHT22;1463;51.070;16.998;2023-10-08T09:56:14;13.40;94.40
2907;DHT22;1463;51.070;16.998;2023-10-08T09:58:43;13.50;94.60
2907;DHT22;1463;51.070;16.998;2023-10-08T10:01:10;13.50;93.30
2907;DHT22;1463;51.070;16.998;2023-10-08T10:03:38;13.50;91.60
2907;DHT22;1463;51.070;16.998;2023-10-08T10:06:12;13.40;91.20
2907;DHT22;1463;51.070;16.998;2023-10-08T10:08:44;13.50;96.70
2907;DHT22;1463;51.070;16.998;2023-10-08T10:11:15;13.60;93.80
2907;DHT22;1463;51.070;16.998;2023-10-08T10:13:43;13.90;96.40
2907;DHT22;1463;51.070;16.998;2023-10-08T10:16:16;14.00;94.00
2907;DHT22;1463;51.070;16.998;2023-10-08T10:18:44;14.40;93.80
2907;DHT22;1463;51.070;16.998;2023-10-08T10:21:25;14.70;95.40
2907;DHT22;1463;51.070;16.998;2023-10-08T10:23:53;14.70;90.20
2907;DHT22;1463;51.070;16.998;2023-10-08T10:26:26;14.90;90.40
2907;DHT22;1463;51.070;16.998;2023-10-08T10:29:17;15.10;90.30
2907;DHT22;1463;51.070;16.998;2023-10-08T10:31:46;15.20;84.10
2907;DHT22;1463;51.070;16.998;2023-10-08T10:34:14;15.30;86.40
2907;DHT22;1463;51.070;16.998;2023-10-08T10:36:43;15.40;87.80
2907;DHT22;1463;51.070;16.998;2023-10-08T10:39:15;15.50;84.80
2907;DHT22;1463;51.070;16.998;2023-10-08T10:41:45;15.60;82.00
2907;DHT22;1463;51.070;16.998;2023-10-08T10:44:12;15.70;82.70
2907;DHT22;1463;51.070;16.998;2023-10-08T10:46:41;15.80;81.60
2907;DHT22;1463;51.070;16.998;2023-10-08T10:49:08;15.90;80.20
2907;DHT22;1463;51.070;16.998;2023-10-08T10:51:47;16.00;78.60
2907;DHT22;1463;51.070;16.998;2023-10-08T10:54:16;16.10;81.20
2907;DHT22;1463;51.070;16.998;2023-10-08T10:56:50;16.20;75.70
2907;DHT22;1463;51.070;16.998;2023-10-08T10:59:29;16.20;75.50
2907;DHT22;1463;51.070;16.998;2023-10-08T11:02:02;16.30;75.60
2907;DHT22;1463;51.070;16.998;2023-10-08T11:04:34;16.40;74.30
2907;DHT22;1463;51.070;16.998;2023-10-08T11:07:13;16.50;74.10
2907;DHT22;1463;51.070;16.998;2023-10-08T11:09:42;16.70;74.30
2907;DHT22;1463;51.070;16.998;2023-10-08T11:12:13;16.80;75.60
2907;DHT22;1463;51.070;16.998;2023-10-08T11:14:48;16.80;69.50
2907;DHT22;1463;51.070;16.998;2023-10-08T11:17:22;16.90;69.10
2907;DHT22;1463;51.070;16.998;2023-10-08T11:19:51;17.00;65.10
2907;DHT22;1463;51.070;16.998;2023-10-08T11:22:18;17.10;67.10
2907;DHT22;1463;51.070;16.998;2023-10-08T11:24:48;17.10;68.70
2907;DHT22;1463;51.070;16.998;2023-10-08T11:27:20;17.00;69.20
2907;DHT22;1463;51.070;16.998;2023-10-08T11:29:56;17.10;69.50
2907;DHT22;1463;51.070;16.998;2023-10-08T11:32:24;17.20;66.80
2907;DHT22;1463;51.070;16.998;2023-10-08T11:34:55;17.30;65.40
2907;DHT22;1463;51.070;16.998;2023-10-08T11:37:28;17.40;61.40
2907;DHT22;1463;51.070;16.998;2023-10-08T11:39:55;17.40;61.20
2907;DHT22;1463;51.070;16.998;2023-10-08T11:42:25;17.50;62.40
2907;DHT22;1463;51.070;16.998;2023-10-08T11:45:07;17.40;62.60
2907;DHT22;1463;51.070;16.998;2023-10-08T11:47:49;17.50;63.60
2907;DHT22;1463;51.070;16.998;2023-10-08T11:50:23;17.40;65.40
2907;DHT22;1463;51.070;16.998;2023-10-08T11:52:57;17.50;66.60
2907;DHT22;1463;51.070;16.998;2023-10-08T11:55:27;17.50;65.30
2907;DHT22;1463;51.070;16.998;2023-10-08T11:57:56;17.50;63.00
2907;DHT22;1463;51.070;16.998;2023-10-08T12:00:23;17.40;62.40
2907;DHT22;1463;51.070;16.998;2023-10-08T12:02:52;17.40;60.50
2907;DHT22;1463;51.070;16.998;2023-10-08T12:05:20;17.40;59.10
2907;DHT22;1463;51.070;16.998;2023-10-08T12:07:50;17.40;59.10
2907;DHT22;1463;51.070;16.998;2023-10-08T12:10:17;17.30;60.30
2907;DHT22;1463;51.070;16.998;2023-10-08T12:12:48;17.20;59.30
2907;DHT22;1463;51.070;16.998;2023-10-08T12:15:19;17.20;60.00
2907;DHT22;1463;51.070;16.998;2023-10-08T12:17:49;17.30;64.60
2907;DHT22;1463;51.070;16.998;2023-10-08T12:20:35;17.40;64.80
2907;DHT22;1463;51.070;16.998;2023-10-08T12:23:03;17.20;60.40
2907;DHT22;1463;51.070;16.998;2023-10-08T12:25:31;17.10;61.80
2907;DHT22;1463;51.070;16.998;2023-10-08T12:28:03;17.00;60.50
2907;DHT22;1463;51.070;16.998;2023-10-08T12:30:32;17.10;61.70
2907;DHT22;1463;51.070;16.998;2023-10-08T12:33:07;17.10;62.00
2907;DHT22;1463;51.070;16.998;2023-10-08T12:35:39;17.00;60.80
2907;DHT22;1463;51.070;16.998;2023-10-08T12:38:05;16.90;59.30
2907;DHT22;1463;51.070;16.998;2023-10-08T12:40:34;16.90;60.40
2907;DHT22;1463;51.070;16.998;2023-10-08T12:43:13;17.00;60.60
2907;DHT22;1463;51.070;16.998;2023-10-08T12:45:43;16.90;61.20
2907;DHT22;1463;51.070;16.998;2023-10-08T12:48:18;16.80;62.00
2907;DHT22;1463;51.070;16.998;2023-10-08T12:50:45;16.80;61.30
2907;DHT22;1463;51.070;16.998;2023-10-08T12:53:19;16.80;61.70
2907;DHT22;1463;51.070;16.998;2023-10-08T12:55:50;16.50;59.60
2907;DHT22;1463;51.070;16.998;2023-10-08T12:58:19;16.30;59.90
2907;DHT22;1463;51.070;16.998;2023-10-08T13:00:55;16.30;60.20
2907;DHT22;1463;51.070;16.998;2023-10-08T13:03:25;16.40;62.00
2907;DHT22;1463;51.070;16.998;2023-10-08T13:05:57;16.30;59.90
2907;DHT22;1463;51.070;16.998;2023-10-08T13:08:29;16.30;59.20
2907;DHT22;1463;51.070;16.998;2023-10-08T13:10:56;16.40;60.10
2907;DHT22;1463;51.070;16.998;2023-10-08T13:13:26;16.40;60.90
2907;DHT22;1463;51.070;16.998;2023-10-08T13:15:55;16.40;60.20
2907;DHT22;1463;51.070;16.998;2023-10-08T13:18:25;16.50;59.50
2907;DHT22;1463;51.070;16.998;2023-10-08T13:20:52;16.40;59.80
2907;DHT22;1463;51.070;16.998;2023-10-08T13:23:19;16.40;60.00
2907;DHT22;1463;51.070;16.998;2023-10-08T13:25:46;16.30;59.70
2907;DHT22;1463;51.070;16.998;2023-10-08T13:28:19;16.20;59.10
2907;DHT22;1463;51.070;16.998;2023-10-08T13:30:48;16.10;60.60
2907;DHT22;1463;51.070;16.998;2023-10-08T13:33:19;16.00;60.80
2907;DHT22;1463;51.070;16.998;2023-10-08T13:35:46;16.00;60.00
2907;DHT22;1463;51.070;16.998;2023-10-08T13:38:16;16.10;61.80
2907;DHT22;1463;51.070;16.998;2023-10-08T13:40:45;16.10;61.70
2907;DHT22;1463;51.070;16.998;2023-10-08T13:43:28;16.10;61.50
2907;DHT22;1463;51.070;16.998;2023-10-08T13:46:00;16.10;61.40
2907;DHT22;1463;51.070;16.998;2023-10-08T13:48:31;16.20;62.30
2907;DHT22;1463;51.070;16.998;2023-10-08T13:51:00;16.00;60.90
2907;DHT22;1463;51.070;16.998;2023-10-08T13:53:27;15.80;61.30
2907;DHT22;1463;51.070;16.998;2023-10-08T13:55:57;15.90;61.00
2907;DHT22;1463;51.070;16.998;2023-10-08T13:58:24;16.00;61.60
2907;DHT22;1463;51.070;16.998;2023-10-08T14:00:51;16.00;61.30
2907;DHT22;1463;51.070;16.998;2023-10-08T14:03:18;16.00;62.40
2907;DHT22;1463;51.070;16.998;2023-10-08T14:05:48;15.90;60.20
2907;DHT22;1463;51.070;16.998;2023-10-08T14:08:17;15.90;60.50
2907;DHT22;1463;51.070;16.998;2023-10-08T14:10:45;16.00;62.10
2907;DHT22;1463;51.070;16.998;2023-10-08T14:13:17;16.10;62.90
2907;DHT22;1463;51.070;16.998;2023-10-08T14:15:45;15.90;60.10
2907;DHT22;1463;51.070;16.998;2023-10-08T14:18:15;15.90;60.90
2907;DHT22;1463;51.070;16.998;2023-10-08T14:20:53;15.80;60.40
2907;DHT22;1463;51.070;16.998;2023-10-08T14:23:20;15.70;62.00
2907;DHT22;1463;51.070;16.998;2023-10-08T14:25:48;15.60;60.40
2907;DHT22;1463;51.070;16.998;2023-10-08T14:28:22;15.60;61.60
2907;DHT22;1463;51.070;16.998;2023-10-08T14:31:02;15.60;61.10
2907;DHT22;1463;51.070;16.998;2023-10-08T14:33:29;15.70;62.20
2907;DHT22;1463;51.070;16.998;2023-10-08T14:35:59;15.70;61.10
2907;DHT22;1463;51.070;16.998;2023-10-08T14:38:43;15.80;62.00
2907;DHT22;1463;51.070;16.998;2023-10-08T14:41:27;15.70;60.10
2907;DHT22;1463;51.070;16.998;2023-10-08T14:44:12;15.60;60.20
2907;DHT22;1463;51.070;16.998;2023-10-08T14:46:40;15.60;63.00
2907;DHT22;1463;51.070;16.998;2023-10-08T14:49:10;15.60;62.60
2907;DHT22;1463;51.070;16.998;2023-10-08T14:51:42;15.70;61.90
2907;DHT22;1463;51.070;16.998;2023-10-08T14:54:12;15.70;60.30
2907;DHT22;1463;51.070;16.998;2023-10-08T14:56:41;15.60;59.40
2907;DHT22;1463;51.070;16.998;2023-10-08T14:59:08;15.60;60.20
2907;DHT22;1463;51.070;16.998;2023-10-08T15:01:35;15.60;61.30
2907;DHT22;1463;51.070;16.998;2023-10-08T15:04:02;15.70;62.40
2907;DHT22;1463;51.070;16.998;2023-10-08T15:06:31;15.70;62.40
2907;DHT22;1463;51.070;16.998;2023-10-08T15:09:02;15.60;62.60
2907;DHT22;1463;51.070;16.998;2023-10-08T15:11:29;15.60;61.30
2907;DHT22;1463;51.070;16.998;2023-10-08T15:13:58;15.60;62.80
2907;DHT22;1463;51.070;16.998;2023-10-08T15:16:27;15.60;61.80
2907;DHT22;1463;51.070;16.998;2023-10-08T15:18:56;15.40;61.50
2907;DHT22;1463;51.070;16.998;2023-10-08T15:21:23;15.50;62.30
2907;DHT22;1463;51.070;16.998;2023-10-08T15:23:50;15.50;63.80
2907;DHT22;1463;51.070;16.998;2023-10-08T15:26:19;15.50;63.10
2907;DHT22;1463;51.070;16.998;2023-10-08T15:28:45;15.50;64.80
2907;DHT22;1463;51.070;16.998;2023-10-08T15:31:12;15.40;63.60
2907;DHT22;1463;51.070;16.998;2023-10-08T15:33:39;15.50;64.10
2907;DHT22;1463;51.070;16.998;2023-10-08T15:36:06;15.50;63.80
2907;DHT22;1463;51.070;16.998;2023-10-08T15:38:33;15.50;64.30
2907;DHT22;1463;51.070;16.998;2023-10-08T15:40:59;15.40;63.10
2907;DHT22;1463;51.070;16.998;2023-10-08T15:43:28;15.30;62.70
2907;DHT22;1463;51.070;16.998;2023-10-08T15:45:57;15.30;64.20
2907;DHT22;1463;51.070;16.998;2023-10-08T15:48:23;15.20;61.80
2907;DHT22;1463;51.070;16.998;2023-10-08T15:50:51;15.20;63.40
2907;DHT22;1463;51.070;16.998;2023-10-08T15:53:18;15.30;63.50
2907;DHT22;1463;51.070;16.998;2023-10-08T15:55:45;15.20;65.30
2907;DHT22;1463;51.070;16.998;2023-10-08T15:58:12;15.20;64.00
2907;DHT22;1463;51.070;16.998;2023-10-08T16:00:41;15.20;64.30
2907;DHT22;1463;51.070;16.998;2023-10-08T16:03:07;15.10;64.70
2907;DHT22;1463;51.070;16.998;2023-10-08T16:05:35;15.10;64.60
2907;DHT22;1463;51.070;16.998;2023-10-08T16:08:02;15.10;64.80
2907;DHT22;1463;51.070;16.998;2023-10-08T16:10:29;15.10;65.00